Time;durP1;ratioP1;P1;durP2;ratioP2;P2;SDS_P1;SDS_P2;PMS_P1;PMS_P2;Temp;Humidity;BMP_temperature;BMP_pressure;BME280_temperature;BME280_humidity;BME280_pressure;Samples;Min_cycle;Max_cycle;Signal;HPM_P1;HPM_P2
2021/03/15 00:02:22;;;;;;;40.22;5.47;;;;;;;;;;5068545;28;20044;-61
2021/03/15 00:04:48;;;;;;;48.72;5.05;;;;;;;;;;5068250;28;20029;-61
2021/03/15 00:07:15;;;;;;;46.55;5.55;;;;;;;;;;5065233;28;20068;-61
2021/03/15 00:09:41;;;;;;;43.60;5.20;;;;;;;;;;5066008;28;20549;-62
2021/03/15 00:12:08;;;;;;;49.63;6.05;;;;;;;;;;5065422;28;20106;-61
2021/03/15 00:14:34;;;;;;;;;;;;;;;;;;5064252;28;20535;-61
2021/03/15 00:17:01;;;;;;;31.77;5.70;;;;;;;;;;5065813;28;19920;-61
2021/03/15 00:19:27;;;;;;;34.70;4.85;;;;;;;;;;5065831;28;20071;-61
2021/03/15 00:21:54;;;;;;;35.92;4.70;;;;;;;;;;5061976;28;20087;-61
2021/03/15 00:24:20;;;;;;;38.38;5.03;;;;;;;;;;5069213;28;20492;-61
2021/03/15 00:26:46;;;;;;;34.28;5.15;;;;;;;;;;5065818;28;20053;-61
2021/03/15 00:29:13;;;;;;;41.22;5.80;;;;;;;;;;5063767;28;20048;-61
2021/03/15 00:31:39;;;;;;;39.38;4.97;;;;;;;;;;5064520;28;20125;-61
2021/03/15 00:34:05;;;;;;;25.92;4.28;;;;;;;;;;5062236;28;20064;-61
2021/03/15 00:36:32;;;;;;;39.55;4.35;;;;;;;;;;5064731;28;20803;-61
2021/03/15 00:38:58;;;;;;;40.95;4.97;;;;;;;;;;5065833;28;20056;-61
2021/03/15 00:41:24;;;;;;;22.83;3.85;;;;;;;;;;5068270;28;20039;-61
2021/03/15 00:43:50;;;;;;;36.30;4.28;;;;;;;;;;5068634;28;20037;-61
2021/03/15 00:46:16;;;;;;;31.92;4.18;;;;;;;;;;5063508;28;20049;-61
2021/03/15 00:48:42;;;;;;;37.80;4.70;;;;;;;;;;5072180;28;20040;-61
2021/03/15 00:51:09;;;;;;;35.50;3.60;;;;;;;;;;5073871;28;20095;-61
2021/03/15 00:53:36;;;;;;;29.58;4.45;;;;;;;;;;5065374;28;20048;-62
2021/03/15 00:56:04;;;;;;;33.33;4.15;;;;;;;;;;5066292;28;20044;-61
2021/03/15 00:58:31;;;;;;;40.53;5.60;;;;;;;;;;5066757;28;20131;-62
2021/03/15 01:00:57;;;;;;;38.45;4.97;;;;;;;;;;5069864;28;20135;-62
2021/03/15 01:03:41;;;;;;;30.23;4.15;;;;;;;;;;5067662;28;20063;-61
2021/03/15 01:06:09;;;;;;;44.15;5.07;;;;;;;;;;5070741;28;20044;-61
2021/03/15 01:08:41;;;;;;;39.42;4.63;;;;;;;;;;5071309;28;20781;-61
2021/03/15 01:11:24;;;;;;;32.67;4.18;;;;;;;;;;5069473;28;20052;-61
2021/03/15 01:13:59;;;;;;;35.08;4.38;;;;;;;;;;5073344;28;20059;-62
2021/03/15 01:16:39;;;;;;;34.38;4.53;;;;;;;;;;5065516;28;20054;-61
2021/03/15 01:19:06;;;;;;;29.92;4.25;;;;;;;;;;5068814;28;20136;-61
2021/03/15 01:21:32;;;;;;;24.70;4.18;;;;;;;;;;5071484;28;20048;-61
2021/03/15 01:23:59;;;;;;;30.55;4.07;;;;;;;;;;5067138;28;20044;-62
2021/03/15 01:26:26;;;;;;;23.88;3.58;;;;;;;;;;5074323;28;20066;-61
2021/03/15 01:28:52;;;;;;;23.05;3.42;;;;;;;;;;5072522;28;20033;-61
2021/03/15 01:31:18;;;;;;;12.27;3.13;;;;;;;;;;5070754;28;20052;-61
2021/03/15 01:33:45;;;;;;;15.70;3.50;;;;;;;;;;5066083;28;20103;-61
2021/03/15 01:36:11;;;;;;;18.65;3.20;;;;;;;;;;5070200;28;20094;-61
2021/03/15 01:38:37;;;;;;;18.10;2.88;;;;;;;;;;5066079;28;20040;-61
2021/03/15 01:41:03;;;;;;;17.48;3.38;;;;;;;;;;5070823;28;20710;-61
2021/03/15 01:43:30;;;;;;;12.68;3.35;;;;;;;;;;5068124;28;20040;-61
2021/03/15 01:45:56;;;;;;;13.50;3.08;;;;;;;;;;5066174;28;20518;-61
2021/03/15 01:48:22;;;;;;;17.80;3.17;;;;;;;;;;5065950;28;20045;-62
2021/03/15 01:50:50;;;;;;;12.27;3.35;;;;;;;;;;5061537;28;20037;-61
2021/03/15 01:53:18;;;;;;;14.65;3.00;;;;;;;;;;5061852;28;20044;-61
2021/03/15 01:55:44;;;;;;;10.50;2.80;;;;;;;;;;5062923;28;20484;-61
2021/03/15 01:58:12;;;;;;;13.60;2.78;;;;;;;;;;5070256;28;20048;-61
2021/03/15 02:00:39;;;;;;;10.70;2.85;;;;;;;;;;5064055;28;20408;-62
2021/03/15 02:03:07;;;;;;;9.55;2.15;;;;;;;;;;5071107;28;20052;-62
2021/03/15 02:05:33;;;;;;;;;;;;;;;;;;5072647;28;20094;-61
2021/03/15 02:07:59;;;;;;;10.80;2.67;;;;;;;;;;5070557;28;19920;-61
2021/03/15 02:10:26;;;;;;;6.50;2.35;;;;;;;;;;5065035;28;20055;-61
2021/03/15 02:12:58;;;;;;;10.70;3.15;;;;;;;;;;5071153;28;20045;-61
2021/03/15 02:15:43;;;;;;;12.52;2.70;;;;;;;;;;5065099;28;20033;-61
2021/03/15 02:18:16;;;;;;;13.45;2.60;;;;;;;;;;5068703;28;20495;-61
2021/03/15 02:20:43;;;;;;;14.50;2.60;;;;;;;;;;5065970;28;20074;-61
2021/03/15 02:23:12;;;;;;;10.18;2.40;;;;;;;;;;5068547;28;20032;-61
2021/03/15 02:25:39;;;;;;;10.60;2.50;;;;;;;;;;5065187;28;20115;-62
2021/03/15 02:28:16;;;;;;;13.93;2.50;;;;;;;;;;5066657;28;20167;-61
2021/03/15 02:30:55;;;;;;;11.23;1.95;;;;;;;;;;5067925;28;20052;-61
2021/03/15 02:33:41;;;;;;;9.27;2.08;;;;;;;;;;5068627;28;20037;-61
2021/03/15 02:36:09;;;;;;;7.68;1.90;;;;;;;;;;5068606;28;20426;-61
2021/03/15 02:38:36;;;;;;;6.75;1.92;;;;;;;;;;5069270;28;20044;-61
2021/03/15 02:41:02;;;;;;;;;;;;;;;;;;5066749;28;20069;-61
2021/03/15 02:43:34;;;;;;;7.85;1.67;;;;;;;;;;5058867;28;19921;-61
2021/03/15 02:46:03;;;;;;;6.90;1.83;;;;;;;;;;5063699;28;20059;-61
2021/03/15 02:48:31;;;;;;;8.48;2.10;;;;;;;;;;5069508;28;20071;-61
2021/03/15 02:50:58;;;;;;;8.25;2.13;;;;;;;;;;5069483;28;20048;-61
2021/03/15 02:53:25;;;;;;;8.65;2.20;;;;;;;;;;5065500;28;20546;-61
2021/03/15 02:55:53;;;;;;;6.95;1.77;;;;;;;;;;5059557;28;20037;-61
2021/03/15 02:58:20;;;;;;;10.88;2.25;;;;;;;;;;5064775;28;20439;-61
2021/03/15 03:00:47;;;;;;;5.15;1.77;;;;;;;;;;5063747;28;20045;-61
2021/03/15 03:03:17;;;;;;;4.65;1.65;;;;;;;;;;5064611;28;20037;-61
2021/03/15 03:05:45;;;;;;;13.20;2.58;;;;;;;;;;5071321;28;20036;-61
2021/03/15 03:08:16;;;;;;;6.35;2.10;;;;;;;;;;5064503;28;20041;-61
2021/03/15 03:10:42;;;;;;;6.68;2.10;;;;;;;;;;5060544;28;20041;-61
2021/03/15 03:13:10;;;;;;;9.90;2.60;;;;;;;;;;5062556;28;20048;-61
2021/03/15 03:15:37;;;;;;;9.27;2.38;;;;;;;;;;5067067;28;20046;-61
2021/03/15 03:18:04;;;;;;;3.92;1.95;;;;;;;;;;5067434;28;20120;-61
2021/03/15 03:20:31;;;;;;;6.90;2.17;;;;;;;;;;5064521;28;20041;-61
2021/03/15 03:22:58;;;;;;;10.80;3.07;;;;;;;;;;5065502;28;20793;-61
2021/03/15 03:25:25;;;;;;;10.88;2.20;;;;;;;;;;5058371;28;20040;-61
2021/03/15 03:27:53;;;;;;;13.23;2.20;;;;;;;;;;5068000;28;20484;-61
2021/03/15 03:30:22;;;;;;;9.27;2.10;;;;;;;;;;5061593;28;20041;-61
2021/03/15 03:32:49;;;;;;;7.80;2.13;;;;;;;;;;5061181;28;20130;-61
2021/03/15 03:35:15;;;;;;;5.22;1.90;;;;;;;;;;5063456;28;20259;-61
2021/03/15 03:37:41;;;;;;;10.90;2.25;;;;;;;;;;5062705;28;20048;-61
2021/03/15 03:40:08;;;;;;;9.75;2.60;;;;;;;;;;5066889;28;20067;-61
2021/03/15 03:42:34;;;;;;;5.33;1.93;;;;;;;;;;5069739;28;20064;-61
2021/03/15 03:45:00;;;;;;;7.32;2.00;;;;;;;;;;5066335;28;20090;-61
2021/03/15 03:47:27;;;;;;;5.32;1.80;;;;;;;;;;5064429;28;20067;-61
2021/03/15 03:49:55;;;;;;;10.63;2.08;;;;;;;;;;5064140;28;20557;-61
2021/03/15 03:52:24;;;;;;;8.55;2.10;;;;;;;;;;5062268;28;20553;-61
2021/03/15 03:54:49;;;;;;;;;;;;;;;;;;5070934;28;20047;-61
2021/03/15 03:57:20;;;;;;;10.57;2.10;;;;;;;;;;5066937;28;19986;-61
2021/03/15 03:59:48;;;;;;;7.55;1.90;;;;;;;;;;5061465;28;20044;-61
2021/03/15 04:02:15;;;;;;;10.55;2.50;;;;;;;;;;5062999;28;20070;-61
2021/03/15 04:04:44;;;;;;;5.60;1.85;;;;;;;;;;5069947;28;20458;-61
2021/03/15 04:07:11;;;;;;;6.03;2.00;;;;;;;;;;5063531;28;20052;-61
2021/03/15 04:09:39;;;;;;;7.95;1.58;;;;;;;;;;5063483;28;20119;-61
2021/03/15 04:12:13;;;;;;;11.30;2.20;;;;;;;;;;5070209;28;20060;-61
2021/03/15 04:14:42;;;;;;;7.88;1.60;;;;;;;;;;5065928;28;20103;-61
2021/03/15 04:17:15;;;;;;;5.32;1.95;;;;;;;;;;5065764;28;20045;-61
2021/03/15 04:19:53;;;;;;;7.45;2.08;;;;;;;;;;5065757;28;20037;-61
2021/03/15 04:22:22;;;;;;;6.15;1.80;;;;;;;;;;5066286;28;20056;-61
2021/03/15 04:24:49;;;;;;;6.20;1.98;;;;;;;;;;5070633;28;20067;-61
2021/03/15 04:27:15;;;;;;;8.20;2.10;;;;;;;;;;5065883;28;20122;-61
2021/03/15 04:29:41;;;;;;;7.38;2.17;;;;;;;;;;5069167;28;20040;-61
2021/03/15 04:32:09;;;;;;;7.38;2.20;;;;;;;;;;5059391;28;20045;-61
2021/03/15 04:34:35;;;;;;;5.97;2.00;;;;;;;;;;5058029;28;20037;-61
2021/03/15 04:37:02;;;;;;;5.03;1.53;;;;;;;;;;5068716;28;20049;-61
2021/03/15 04:39:30;;;;;;;3.22;1.40;;;;;;;;;;5060677;28;20835;-61
2021/03/15 04:41:59;;;;;;;9.00;2.20;;;;;;;;;;5064020;28;20037;-61
2021/03/15 04:44:26;;;;;;;4.97;1.95;;;;;;;;;;5068845;28;20086;-61
2021/03/15 04:46:53;;;;;;;3.88;1.73;;;;;;;;;;5065762;28;20484;-61
2021/03/15 04:49:21;;;;;;;5.65;1.70;;;;;;;;;;5065870;28;20070;-61
2021/03/15 04:51:48;;;;;;;6.57;1.83;;;;;;;;;;5067670;28;20045;-61
2021/03/15 04:54:14;;;;;;;3.33;1.48;;;;;;;;;;5062350;28;20028;-61
2021/03/15 04:56:41;;;;;;;5.60;1.63;;;;;;;;;;5068594;28;20048;-61
2021/03/15 04:59:08;;;;;;;4.40;1.52;;;;;;;;;;5062931;28;20065;-61
2021/03/15 05:01:36;;;;;;;6.25;1.70;;;;;;;;;;5067135;28;20045;-61
2021/03/15 05:04:07;;;;;;;8.23;1.75;;;;;;;;;;5065748;28;20046;-61
2021/03/15 05:06:34;;;;;;;1.73;1.42;;;;;;;;;;5068241;28;20040;-61
2021/03/15 05:09:00;;;;;;;2.92;1.50;;;;;;;;;;5066089;28;20048;-61
2021/03/15 05:11:30;;;;;;;5.25;2.03;;;;;;;;;;5064550;28;20044;-61
2021/03/15 05:13:58;;;;;;;6.13;1.98;;;;;;;;;;5067592;28;20123;-61
2021/03/15 05:16:25;;;;;;;4.80;1.80;;;;;;;;;;5067390;28;20087;-61
2021/03/15 05:18:53;;;;;;;6.65;2.10;;;;;;;;;;5066840;28;20048;-61
2021/03/15 05:21:21;;;;;;;5.47;1.85;;;;;;;;;;5066677;28;20048;-61
2021/03/15 05:23:47;;;;;;;5.15;1.70;;;;;;;;;;5067497;28;20037;-61
2021/03/15 05:26:13;;;;;;;6.68;1.33;;;;;;;;;;5062734;28;20064;-61
2021/03/15 05:28:41;;;;;;;5.28;1.55;;;;;;;;;;5067883;28;20040;-61
2021/03/15 05:31:07;;;;;;;7.63;1.83;;;;;;;;;;5068123;28;20039;-61
2021/03/15 05:33:36;;;;;;;4.80;1.67;;;;;;;;;;5062466;28;20048;-61
2021/03/15 05:36:06;;;;;;;8.70;1.55;;;;;;;;;;5065054;28;20033;-61
2021/03/15 05:38:32;;;;;;;7.20;1.65;;;;;;;;;;5068089;28;20102;-61
2021/03/15 05:40:58;;;;;;;8.85;1.90;;;;;;;;;;5059456;28;20060;-61
2021/03/15 05:43:25;;;;;;;9.00;1.83;;;;;;;;;;5068807;28;20430;-61
2021/03/15 05:46:06;;;;;;;6.53;2.05;;;;;;;;;;5060886;28;20464;-61
2021/03/15 05:48:51;;;;;;;11.18;2.40;;;;;;;;;;5073568;28;20049;-61
2021/03/15 05:51:27;;;;;;;12.50;2.22;;;;;;;;;;5067054;28;20052;-61
2021/03/15 05:53:59;;;;;;;8.80;2.33;;;;;;;;;;5067159;28;20094;-61
2021/03/15 05:56:38;;;;;;;12.65;2.10;;;;;;;;;;5069913;28;20098;-62
2021/03/15 05:59:07;;;;;;;11.48;2.25;;;;;;;;;;5069013;28;20133;-61
2021/03/15 06:01:48;;;;;;;8.52;2.00;;;;;;;;;;5064124;28;20469;-61
2021/03/15 06:04:14;;;;;;;10.50;2.33;;;;;;;;;;5061402;28;20043;-61
2021/03/15 06:06:41;;;;;;;7.88;2.00;;;;;;;;;;5069132;28;20511;-61
2021/03/15 06:09:12;;;;;;;9.63;2.65;;;;;;;;;;5062049;28;20423;-61
2021/03/15 06:11:46;;;;;;;12.52;2.80;;;;;;;;;;5066040;28;20048;-61
2021/03/15 06:14:15;;;;;;;9.05;2.85;;;;;;;;;;5070146;28;20037;-61
2021/03/15 06:16:41;;;;;;;14.10;2.83;;;;;;;;;;5070535;28;20055;-61
2021/03/15 06:19:08;;;;;;;14.03;2.83;;;;;;;;;;5060442;28;20045;-61
2021/03/15 06:21:35;;;;;;;11.20;3.58;;;;;;;;;;5071155;28;20044;-61
2021/03/15 06:24:01;;;;;;;10.80;3.38;;;;;;;;;;5059749;28;20047;-61
2021/03/15 06:26:29;;;;;;;9.05;3.58;;;;;;;;;;5068963;28;20057;-61
2021/03/15 06:29:02;;;;;;;11.93;3.20;;;;;;;;;;5069773;28;20090;-61
2021/03/15 06:31:29;;;;;;;18.35;3.28;;;;;;;;;;5068904;28;20048;-61
2021/03/15 06:33:57;;;;;;;11.55;3.15;;;;;;;;;;5066901;28;20442;-61
2021/03/15 06:36:24;;;;;;;11.90;2.97;;;;;;;;;;5060726;28;20535;-61
2021/03/15 06:38:51;;;;;;;11.00;3.20;;;;;;;;;;5070692;28;20045;-61
2021/03/15 06:41:18;;;;;;;12.40;3.17;;;;;;;;;;5069913;28;20040;-61
2021/03/15 06:43:44;;;;;;;24.17;5.40;;;;;;;;;;5065944;28;20048;-61
2021/03/15 06:46:15;;;;;;;13.98;5.18;;;;;;;;;;5069008;28;20044;-61
2021/03/15 06:48:42;;;;;;;9.73;4.38;;;;;;;;;;5066752;28;20037;-61
2021/03/15 06:51:08;;;;;;;11.13;3.70;;;;;;;;;;5069581;28;20131;-60
2021/03/15 06:53:39;;;;;;;8.02;3.28;;;;;;;;;;5070606;28;20036;-60
2021/03/15 06:56:12;;;;;;;6.18;3.08;;;;;;;;;;5071188;28;20426;-61
2021/03/15 06:58:59;;;;;;;6.95;2.55;;;;;;;;;;5065682;28;20052;-60
2021/03/15 07:01:26;;;;;;;5.47;2.35;;;;;;;;;;5067218;28;20037;-60
2021/03/15 07:04:09;;;;;;;5.60;2.30;;;;;;;;;;5065367;28;20033;-61
2021/03/15 07:06:39;;;;;;;4.28;1.77;;;;;;;;;;5062808;28;20114;-60
2021/03/15 07:09:09;;;;;;;2.47;1.25;;;;;;;;;;5069535;28;20106;-60
2021/03/15 07:11:35;;;;;;;4.60;1.58;;;;;;;;;;5065235;28;20037;-61
2021/03/15 07:14:02;;;;;;;4.35;1.70;;;;;;;;;;5063634;28;20045;-61
2021/03/15 07:16:29;;;;;;;6.78;1.90;;;;;;;;;;5059998;28;20041;-61
2021/03/15 07:19:01;;;;;;;5.80;1.98;;;;;;;;;;5070562;28;20089;-60
2021/03/15 07:21:32;;;;;;;16.05;2.80;;;;;;;;;;5062451;28;20049;-61
2021/03/15 07:23:59;;;;;;;5.70;2.28;;;;;;;;;;5064452;28;20086;-61
2021/03/15 07:26:27;;;;;;;4.05;2.40;;;;;;;;;;5065870;28;20497;-61
2021/03/15 07:28:53;;;;;;;4.32;2.10;;;;;;;;;;5066641;28;20045;-61
2021/03/15 07:31:20;;;;;;;10.50;2.35;;;;;;;;;;5065790;28;20055;-61
2021/03/15 07:33:47;;;;;;;6.67;2.27;;;;;;;;;;5065694;28;20399;-61
2021/03/15 07:36:13;;;;;;;8.48;2.42;;;;;;;;;;5066919;28;20283;-61
2021/03/15 07:38:45;;;;;;;3.13;1.80;;;;;;;;;;5067881;28;20048;-61
2021/03/15 07:41:18;;;;;;;5.95;1.90;;;;;;;;;;5068398;28;20046;-61
2021/03/15 07:43:44;;;;;;;6.60;1.88;;;;;;;;;;5067006;28;20459;-61
2021/03/15 07:46:18;;;;;;;5.55;1.52;;;;;;;;;;5068826;28;20131;-61
2021/03/15 07:48:44;;;;;;;3.65;1.50;;;;;;;;;;5064835;28;20072;-61
2021/03/15 07:51:11;;;;;;;4.20;1.83;;;;;;;;;;5061646;28;20500;-61
2021/03/15 07:53:38;;;;;;;4.18;1.75;;;;;;;;;;5068292;28;20283;-61
2021/03/15 07:56:05;;;;;;;6.75;2.13;;;;;;;;;;5067276;28;20456;-61
2021/03/15 07:58:32;;;;;;;;;;;;;;;;;;5070529;28;20078;-61
2021/03/15 08:00:59;;;;;;;4.63;1.92;;;;;;;;;;5054994;28;19920;-61
2021/03/15 08:03:27;;;;;;;5.22;1.75;;;;;;;;;;5065583;28;20106;-61
2021/03/15 08:05:55;;;;;;;4.07;1.80;;;;;;;;;;5067179;28;20135;-61
2021/03/15 08:08:21;;;;;;;2.22;1.90;;;;;;;;;;5056434;28;20063;-61
2021/03/15 08:10:49;;;;;;;3.58;1.95;;;;;;;;;;5066688;28;20044;-61
2021/03/15 08:13:19;;;;;;;4.13;2.20;;;;;;;;;;5063485;28;20040;-61
2021/03/15 08:15:46;;;;;;;7.32;2.00;;;;;;;;;;5064360;28;20037;-61
2021/03/15 08:18:14;;;;;;;3.53;2.20;;;;;;;;;;5062317;28;20052;-61
2021/03/15 08:20:45;;;;;;;3.85;2.17;;;;;;;;;;5064268;28;20037;-61
2021/03/15 08:23:18;;;;;;;3.33;2.33;;;;;;;;;;5067545;28;20048;-61
2021/03/15 08:25:48;;;;;;;4.70;2.38;;;;;;;;;;5066278;28;20498;-61
2021/03/15 08:28:15;;;;;;;4.57;1.77;;;;;;;;;;5067653;28;20044;-61
2021/03/15 08:30:44;;;;;;;2.53;1.80;;;;;;;;;;5066144;28;20079;-61
2021/03/15 08:33:12;;;;;;;3.25;1.30;;;;;;;;;;5068774;28;20045;-61
2021/03/15 08:35:39;;;;;;;1.20;1.10;;;;;;;;;;5067770;28;20511;-61
2021/03/15 08:38:06;;;;;;;1.30;1.00;;;;;;;;;;5066243;28;20060;-61
2021/03/15 08:40:44;;;;;;;1.20;1.10;;;;;;;;;;5069626;28;20052;-61
2021/03/15 08:43:17;;;;;;;1.45;1.00;;;;;;;;;;5066306;28;20138;-61
2021/03/15 08:45:51;;;;;;;1.30;1.05;;;;;;;;;;5065721;28;20036;-61
2021/03/15 08:48:20;;;;;;;0.88;0.88;;;;;;;;;;5063264;28;20446;-61
2021/03/15 08:50:47;;;;;;;1.50;1.40;;;;;;;;;;5069017;28;20479;-61
2021/03/15 08:53:14;;;;;;;;;;;;;;;;;;5060853;28;20048;-61
2021/03/15 08:55:43;;;;;;;1.40;1.30;;;;;;;;;;5067717;28;20367;-61
2021/03/15 08:58:28;;;;;;;1.70;1.60;;;;;;;;;;5058254;28;20049;-61
2021/03/15 09:00:57;;;;;;;3.80;2.38;;;;;;;;;;5063017;28;20041;-61
2021/03/15 09:03:42;;;;;;;3.80;2.63;;;;;;;;;;5063974;28;20131;-61
2021/03/15 09:06:09;;;;;;;4.85;2.75;;;;;;;;;;5070100;28;20049;-61
2021/03/15 09:08:54;;;;;;;4.22;2.92;;;;;;;;;;5060888;28;20546;-61
2021/03/15 09:11:50;;;;;;;3.47;2.95;;;;;;;;;;5062450;28;20040;-61
2021/03/15 09:14:16;;;;;;;5.05;3.63;;;;;;;;;;5057169;28;20068;-61
2021/03/15 09:16:44;;;;;;;3.60;3.10;;;;;;;;;;5066824;28;20063;-61
2021/03/15 09:19:17;;;;;;;4.68;3.42;;;;;;;;;;5072282;28;20445;-61
2021/03/15 09:21:50;;;;;;;6.35;4.20;;;;;;;;;;5065233;28;20555;-61
2021/03/15 09:24:34;;;;;;;11.20;5.38;;;;;;;;;;5073019;28;20049;-61
2021/03/15 09:27:02;;;;;;;8.95;5.38;;;;;;;;;;5068647;28;20147;-61
2021/03/15 09:29:30;;;;;;;7.43;4.45;;;;;;;;;;5071911;28;20041;-61
2021/03/15 09:32:01;;;;;;;13.48;6.93;;;;;;;;;;5071774;28;20054;-61
2021/03/15 09:34:28;;;;;;;13.15;6.72;;;;;;;;;;5068902;28;20033;-61
2021/03/15 09:36:55;;;;;;;13.40;7.43;;;;;;;;;;5073510;28;20048;-61
2021/03/15 09:39:21;;;;;;;18.42;7.25;;;;;;;;;;5073954;28;20396;-61
2021/03/15 09:41:48;;;;;;;19.40;7.18;;;;;;;;;;5072624;28;20047;-61
2021/03/15 09:44:21;;;;;;;13.97;6.40;;;;;;;;;;5072836;28;20071;-61
2021/03/15 09:46:51;;;;;;;9.65;5.68;;;;;;;;;;5059035;28;20087;-61
2021/03/15 09:49:51;;;;;;;16.08;6.55;;;;;;;;;;5069144;28;20041;-61
2021/03/15 09:52:28;;;;;;;8.57;3.50;;;;;;;;;;5041421;28;20131;-61
2021/03/15 09:55:08;;;;;;;9.88;3.97;;;;;;;;;;5068199;28;20098;-61
2021/03/15 09:57:35;;;;;;;12.18;4.10;;;;;;;;;;5068362;28;20052;-61
2021/03/15 10:00:16;;;;;;;8.68;3.88;;;;;;;;;;5070855;28;20131;-61
2021/03/15 10:02:59;;;;;;;6.32;4.20;;;;;;;;;;5071612;28;20084;-61
2021/03/15 10:05:59;;;;;;;8.55;4.65;;;;;;;;;;5064494;28;20110;-61
2021/03/15 10:08:48;;;;;;;11.85;5.22;;;;;;;;;;5062236;28;20048;-61
2021/03/15 10:11:41;;;;;;;11.68;5.15;;;;;;;;;;5066662;28;20147;-61
2021/03/15 10:14:39;;;;;;;12.07;5.13;;;;;;;;;;5068156;28;20045;-61
2021/03/15 10:17:24;;;;;;;12.13;5.35;;;;;;;;;;5060699;28;20049;-61
2021/03/15 10:20:22;;;;;;;14.25;5.70;;;;;;;;;;5080032;28;20532;-61
2021/03/15 10:22:49;;;;;;;15.85;5.63;;;;;;;;;;5069744;28;20547;-61
2021/03/15 10:25:16;;;;;;;12.25;4.80;;;;;;;;;;5069537;28;20052;-61
2021/03/15 10:27:50;;;;;;;10.18;4.15;;;;;;;;;;5066488;28;20055;-61
2021/03/15 10:30:17;;;;;;;8.40;4.57;;;;;;;;;;5062412;28;20052;-61
2021/03/15 10:32:44;;;;;;;8.98;4.30;;;;;;;;;;5068806;28;20048;-61
2021/03/15 10:35:13;;;;;;;12.10;4.00;;;;;;;;;;5063208;28;20163;-61
2021/03/15 10:37:53;;;;;;;9.80;4.57;;;;;;;;;;5070171;28;20056;-61
2021/03/15 10:40:25;;;;;;;11.88;4.70;;;;;;;;;;5070810;28;20486;-61
2021/03/15 10:42:54;;;;;;;9.23;4.72;;;;;;;;;;5066834;28;20055;-61
2021/03/15 10:45:23;;;;;;;11.80;4.47;;;;;;;;;;5078483;28;20113;-61
2021/03/15 10:47:58;;;;;;;16.48;4.82;;;;;;;;;;5069093;28;20055;-61
2021/03/15 10:50:26;;;;;;;11.88;4.57;;;;;;;;;;5066814;28;20055;-61
2021/03/15 10:53:21;;;;;;;9.32;4.32;;;;;;;;;;5067581;28;20132;-61
2021/03/15 10:55:47;;;;;;;14.00;4.28;;;;;;;;;;5066291;28;20060;-61
2021/03/15 10:58:17;;;;;;;9.70;3.67;;;;;;;;;;5063090;28;20064;-61
2021/03/15 11:01:01;;;;;;;14.00;3.53;;;;;;;;;;5069024;28;20750;-61
2021/03/15 11:03:31;;;;;;;8.35;3.38;;;;;;;;;;5059166;28;20048;-61
2021/03/15 11:06:09;;;;;;;7.63;3.05;;;;;;;;;;5060431;28;20052;-61
2021/03/15 11:08:36;;;;;;;10.60;3.63;;;;;;;;;;5061754;28;20052;-61
2021/03/15 11:11:12;;;;;;;10.02;3.88;;;;;;;;;;5059446;28;20045;-61
2021/03/15 11:13:42;;;;;;;8.95;3.40;;;;;;;;;;5065370;28;20475;-61
2021/03/15 11:16:20;;;;;;;11.43;3.55;;;;;;;;;;5061331;28;20049;-61
2021/03/15 11:18:48;;;;;;;7.50;3.25;;;;;;;;;;5065497;28;20049;-61
2021/03/15 11:21:14;;;;;;;;;;;;;;;;;;5061276;28;20040;-61
2021/03/15 11:24:03;;;;;;;10.15;3.22;;;;;;;;;;5063643;28;20390;-61
2021/03/15 11:26:52;;;;;;;12.15;3.38;;;;;;;;;;5065025;28;20060;-61
2021/03/15 11:29:36;;;;;;;6.93;2.67;;;;;;;;;;5063080;28;20047;-61
2021/03/15 11:32:11;;;;;;;12.30;3.13;;;;;;;;;;5069843;28;20075;-61
2021/03/15 11:34:49;;;;;;;7.43;3.30;;;;;;;;;;5062139;28;20132;-61
2021/03/15 11:37:23;;;;;;;6.97;2.92;;;;;;;;;;5064372;28;20233;-61
2021/03/15 11:39:56;;;;;;;8.60;2.70;;;;;;;;;;5056772;28;20037;-61
2021/03/15 11:42:30;;;;;;;6.43;2.90;;;;;;;;;;5068554;28;20044;-61
2021/03/15 11:45:04;;;;;;;7.78;3.15;;;;;;;;;;5059709;28;20053;-61
2021/03/15 11:47:32;;;;;;;9.80;2.60;;;;;;;;;;5065779;28;20041;-61
2021/03/15 11:50:12;;;;;;;5.05;2.35;;;;;;;;;;5056834;28;20080;-61
2021/03/15 11:52:49;;;;;;;12.55;3.10;;;;;;;;;;5067757;28;20045;-61
2021/03/15 11:55:20;;;;;;;7.22;2.80;;;;;;;;;;5082168;28;20052;-61
2021/03/15 11:57:48;;;;;;;5.20;2.42;;;;;;;;;;5067698;28;20135;-61
2021/03/15 12:00:17;;;;;;;3.13;2.10;;;;;;;;;;5063676;28;20071;-61
2021/03/15 12:02:53;;;;;;;8.35;2.67;;;;;;;;;;5058470;28;20444;-61
2021/03/15 12:05:39;;;;;;;7.43;2.10;;;;;;;;;;5058934;28;20056;-61
2021/03/15 12:08:16;;;;;;;3.50;2.05;;;;;;;;;;5068814;28;20037;-61
2021/03/15 12:10:43;;;;;;;3.60;2.23;;;;;;;;;;5069360;28;20048;-61
2021/03/15 12:13:12;;;;;;;7.40;2.40;;;;;;;;;;5069357;28;20049;-61
2021/03/15 12:15:39;;;;;;;3.40;1.90;;;;;;;;;;5065818;28;20048;-61
2021/03/15 12:18:08;;;;;;;2.45;1.60;;;;;;;;;;5063654;28;20047;-61
2021/03/15 12:20:36;;;;;;;3.20;1.98;;;;;;;;;;5065363;28;20097;-61
2021/03/15 12:23:04;;;;;;;7.10;2.13;;;;;;;;;;5064775;28;20059;-61
2021/03/15 12:25:35;;;;;;;5.85;2.10;;;;;;;;;;5068350;28;20072;-61
2021/03/15 12:28:28;;;;;;;3.63;1.77;;;;;;;;;;5063387;28;20158;-61
2021/03/15 12:31:02;;;;;;;3.45;1.85;;;;;;;;;;5064551;28;20049;-61
2021/03/15 12:33:31;;;;;;;4.03;1.75;;;;;;;;;;5063092;28;20139;-61
2021/03/15 12:35:58;;;;;;;3.58;1.67;;;;;;;;;;5063429;28;20060;-61
2021/03/15 12:38:25;;;;;;;2.80;1.75;;;;;;;;;;5065681;28;20485;-61
2021/03/15 12:40:52;;;;;;;4.63;1.73;;;;;;;;;;5059328;28;20128;-61
2021/03/15 12:43:21;;;;;;;6.15;1.90;;;;;;;;;;5065420;28;20044;-61
2021/03/15 12:46:03;;;;;;;2.55;1.50;;;;;;;;;;5057973;28;20040;-61
2021/03/15 12:48:30;;;;;;;2.97;1.60;;;;;;;;;;5062914;28;20098;-61
2021/03/15 12:50:57;;;;;;;3.35;1.63;;;;;;;;;;5063951;28;20091;-61
2021/03/15 12:53:23;;;;;;;2.80;1.80;;;;;;;;;;5045977;28;20459;-61
2021/03/15 12:55:59;;;;;;;4.07;1.67;;;;;;;;;;5061810;28;20036;-61
2021/03/15 12:58:26;;;;;;;2.97;1.33;;;;;;;;;;5068600;28;20506;-61
2021/03/15 13:01:07;;;;;;;1.33;1.23;;;;;;;;;;5066511;28;20294;-61
2021/03/15 13:03:40;;;;;;;3.08;1.48;;;;;;;;;;5065998;28;20414;-61
2021/03/15 13:06:07;;;;;;;1.83;1.17;;;;;;;;;;5065504;28;20052;-61
2021/03/15 13:08:36;;;;;;;1.88;1.20;;;;;;;;;;5065351;28;20044;-60
2021/03/15 13:11:26;;;;;;;1.52;1.10;;;;;;;;;;5062257;28;20047;-60
2021/03/15 13:14:25;;;;;;;3.27;1.20;;;;;;;;;;5054167;28;20403;-61
2021/03/15 13:17:07;;;;;;;2.25;0.98;;;;;;;;;;5069617;28;20287;-61
2021/03/15 13:19:34;;;;;;;3.10;1.00;;;;;;;;;;5063914;28;20045;-61
2021/03/15 13:22:02;;;;;;;2.60;1.17;;;;;;;;;;5063870;28;20618;-61
2021/03/15 13:24:34;;;;;;;1.10;1.00;;;;;;;;;;5068122;28;20044;-61
2021/03/15 13:27:02;;;;;;;2.05;1.10;;;;;;;;;;5064804;28;20048;-61
2021/03/15 13:29:34;;;;;;;0.90;0.88;;;;;;;;;;5063830;28;20166;-61
2021/03/15 13:32:01;;;;;;;3.30;1.15;;;;;;;;;;5069072;28;20052;-61
2021/03/15 13:34:28;;;;;;;1.08;0.70;;;;;;;;;;5066119;28;20037;-61
2021/03/15 13:36:55;;;;;;;1.55;0.90;;;;;;;;;;5068037;28;20041;-61
2021/03/15 13:39:41;;;;;;;1.95;0.90;;;;;;;;;;5055922;28;20431;-61
2021/03/15 13:42:08;;;;;;;1.50;0.95;;;;;;;;;;5069991;28;20500;-61
2021/03/15 13:45:01;;;;;;;1.73;0.90;;;;;;;;;;5063171;28;20086;-61
2021/03/15 13:47:28;;;;;;;1.45;0.93;;;;;;;;;;5065912;28;20147;-61
2021/03/15 13:49:55;;;;;;;2.00;1.30;;;;;;;;;;5065673;28;20044;-61
2021/03/15 13:52:22;;;;;;;3.28;0.80;;;;;;;;;;5065443;28;20087;-61
2021/03/15 13:54:50;;;;;;;0.93;0.80;;;;;;;;;;5071405;28;20127;-61
2021/03/15 13:57:16;;;;;;;0.80;0.70;;;;;;;;;;5059866;28;20037;-61
2021/03/15 14:00:07;;;;;;;2.22;0.73;;;;;;;;;;5066589;28;20041;-61
2021/03/15 14:02:42;;;;;;;2.08;1.10;;;;;;;;;;5065074;28;20040;-61
2021/03/15 14:05:12;;;;;;;1.02;0.93;;;;;;;;;;5070847;28;20041;-61
2021/03/15 14:07:38;;;;;;;2.70;0.97;;;;;;;;;;5070249;28;20119;-61
2021/03/15 14:10:08;;;;;;;1.58;1.17;;;;;;;;;;5071173;28;20573;-61
2021/03/15 14:12:42;;;;;;;1.58;1.27;;;;;;;;;;5067638;28;20048;-61
2021/03/15 14:15:14;;;;;;;2.97;1.20;;;;;;;;;;5068701;28;20072;-61
2021/03/15 14:18:06;;;;;;;1.38;1.02;;;;;;;;;;5065065;28;20063;-61
2021/03/15 14:20:37;;;;;;;1.23;1.00;;;;;;;;;;5069930;28;20064;-61
2021/03/15 14:23:04;;;;;;;1.77;1.30;;;;;;;;;;5059195;28;20037;-61
2021/03/15 14:25:31;;;;;;;1.15;1.02;;;;;;;;;;5065366;28;20177;-61
2021/03/15 14:28:15;;;;;;;1.20;1.10;;;;;;;;;;5066044;28;20047;-61
2021/03/15 14:31:02;;;;;;;1.20;1.00;;;;;;;;;;5064849;28;20084;-61
2021/03/15 14:33:33;;;;;;;1.45;1.00;;;;;;;;;;5078801;28;20060;-61
2021/03/15 14:36:00;;;;;;;1.37;0.90;;;;;;;;;;5069132;28;20561;-61
2021/03/15 14:38:41;;;;;;;1.48;1.10;;;;;;;;;;5071972;28;20394;-61
2021/03/15 14:41:08;;;;;;;1.20;0.90;;;;;;;;;;5063048;28;20131;-61
2021/03/15 14:43:34;;;;;;;1.58;0.95;;;;;;;;;;5067544;28;20044;-61
2021/03/15 14:46:12;;;;;;;1.17;0.90;;;;;;;;;;5065692;28;20052;-61
2021/03/15 14:48:51;;;;;;;2.72;1.00;;;;;;;;;;5068393;28;20067;-61
2021/03/15 14:51:26;;;;;;;2.22;1.17;;;;;;;;;;5069807;28;20495;-61
2021/03/15 14:54:05;;;;;;;1.20;1.10;;;;;;;;;;5075586;28;20049;-61
2021/03/15 14:56:35;;;;;;;1.35;1.08;;;;;;;;;;5072588;28;20098;-61
2021/03/15 14:59:08;;;;;;;4.45;1.20;;;;;;;;;;5067007;28;20484;-61
2021/03/15 15:01:41;;;;;;;1.20;1.00;;;;;;;;;;5068604;28;20056;-61
2021/03/15 15:04:15;;;;;;;1.23;1.02;;;;;;;;;;5070439;28;20055;-61